sensor_id;sensor_type;location;lat;lon;timestamp;P1;durP1;ratioP1;P2;durP2;ratioP2
3447;SDS011;1738;49.500;17.736;2022-12-07T00:01:26;31.35;;;20.42;;
3447;SDS011;1738;49.500;17.736;2022-12-07T00:03:51;29.20;;;20.57;;
3447;SDS011;1738;49.500;17.736;2022-12-07T00:06:17;31.67;;;21.00;;
3447;SDS011;1738;49.500;17.736;2022-12-07T00:08:42;28.87;;;18.63;;
3447;SDS011;1738;49.500;17.736;2022-12-07T00:11:09;28.23;;;17.63;;
3447;SDS011;1738;49.500;17.736;2022-12-07T00:13:34;26.40;;;17.02;;
3447;SDS011;1738;49.500;17.736;2022-12-07T00:16:02;24.87;;;17.12;;
3447;SDS011;1738;49.500;17.736;2022-12-07T00:18:27;23.50;;;16.30;;
3447;SDS011;1738;49.500;17.736;2022-12-07T00:20:53;29.57;;;15.90;;
3447;SDS011;1738;49.500;17.736;2022-12-07T00:23:19;21.17;;;14.23;;
3447;SDS011;1738;49.500;17.736;2022-12-07T00:25:45;24.33;;;16.17;;
3447;SDS011;1738;49.500;17.736;2022-12-07T00:28:10;19.30;;;14.00;;
3447;SDS011;1738;49.500;17.736;2022-12-07T00:30:36;25.37;;;16.13;;
3447;SDS011;1738;49.500;17.736;2022-12-07T00:33:02;21.93;;;15.40;;
3447;SDS011;1738;49.500;17.736;2022-12-07T00:35:28;22.00;;;16.23;;
3447;SDS011;1738;49.500;17.736;2022-12-07T00:37:54;25.53;;;16.53;;
3447;SDS011;1738;49.500;17.736;2022-12-07T00:40:20;25.13;;;17.37;;
3447;SDS011;1738;49.500;17.736;2022-12-07T00:42:45;25.87;;;17.17;;
3447;SDS011;1738;49.500;17.736;2022-12-07T00:45:11;22.53;;;15.40;;
3447;SDS011;1738;49.500;17.736;2022-12-07T00:47:37;19.67;;;14.15;;
3447;SDS011;1738;49.500;17.736;2022-12-07T00:50:03;22.33;;;14.80;;
3447;SDS011;1738;49.500;17.736;2022-12-07T00:52:29;24.43;;;14.90;;
3447;SDS011;1738;49.500;17.736;2022-12-07T00:54:55;22.20;;;15.30;;
3447;SDS011;1738;49.500;17.736;2022-12-07T00:57:21;25.13;;;15.50;;
3447;SDS011;1738;49.500;17.736;2022-12-07T00:59:47;21.17;;;15.03;;
3447;SDS011;1738;49.500;17.736;2022-12-07T01:02:13;24.00;;;15.52;;
3447;SDS011;1738;49.500;17.736;2022-12-07T01:04:38;27.50;;;15.27;;
3447;SDS011;1738;49.500;17.736;2022-12-07T01:07:04;26.40;;;15.50;;
3447;SDS011;1738;49.500;17.736;2022-12-07T01:09:30;19.80;;;14.27;;
3447;SDS011;1738;49.500;17.736;2022-12-07T01:11:56;21.37;;;14.07;;
3447;SDS011;1738;49.500;17.736;2022-12-07T01:14:22;21.65;;;15.35;;
3447;SDS011;1738;49.500;17.736;2022-12-07T01:16:48;18.40;;;13.67;;
3447;SDS011;1738;49.500;17.736;2022-12-07T01:19:13;27.77;;;15.07;;
3447;SDS011;1738;49.500;17.736;2022-12-07T01:21:39;18.13;;;13.07;;
3447;SDS011;1738;49.500;17.736;2022-12-07T01:24:06;21.67;;;13.30;;
3447;SDS011;1738;49.500;17.736;2022-12-07T01:26:31;24.03;;;14.73;;
3447;SDS011;1738;49.500;17.736;2022-12-07T01:28:57;21.60;;;14.73;;
3447;SDS011;1738;49.500;17.736;2022-12-07T01:31:24;24.20;;;15.37;;
3447;SDS011;1738;49.500;17.736;2022-12-07T01:33:51;18.87;;;13.00;;
3447;SDS011;1738;49.500;17.736;2022-12-07T01:36:18;24.37;;;14.67;;
3447;SDS011;1738;49.500;17.736;2022-12-07T01:38:43;23.47;;;14.43;;
3447;SDS011;1738;49.500;17.736;2022-12-07T01:41:09;24.20;;;14.57;;
3447;SDS011;1738;49.500;17.736;2022-12-07T01:43:35;22.55;;;15.57;;
3447;SDS011;1738;49.500;17.736;2022-12-07T01:46:01;22.80;;;15.00;;
3447;SDS011;1738;49.500;17.736;2022-12-07T01:48:28;18.70;;;11.55;;
3447;SDS011;1738;49.500;17.736;2022-12-07T01:50:53;18.10;;;11.83;;
3447;SDS011;1738;49.500;17.736;2022-12-07T01:53:19;23.03;;;15.23;;
3447;SDS011;1738;49.500;17.736;2022-12-07T01:55:45;22.37;;;13.50;;
3447;SDS011;1738;49.500;17.736;2022-12-07T01:58:10;20.73;;;14.53;;
3447;SDS011;1738;49.500;17.736;2022-12-07T02:00:36;23.90;;;13.80;;
3447;SDS011;1738;49.500;17.736;2022-12-07T02:03:05;26.67;;;15.67;;
3447;SDS011;1738;49.500;17.736;2022-12-07T02:05:30;22.33;;;14.23;;
3447;SDS011;1738;49.500;17.736;2022-12-07T02:07:55;18.83;;;14.20;;
3447;SDS011;1738;49.500;17.736;2022-12-07T02:10:26;19.30;;;12.48;;
3447;SDS011;1738;49.500;17.736;2022-12-07T02:12:52;23.80;;;13.97;;
3447;SDS011;1738;49.500;17.736;2022-12-07T02:15:16;22.33;;;14.87;;
3447;SDS011;1738;49.500;17.736;2022-12-07T02:17:51;23.05;;;15.65;;
3447;SDS011;1738;49.500;17.736;2022-12-07T02:20:28;16.90;;;13.30;;
3447;SDS011;1738;49.500;17.736;2022-12-07T02:23:35;21.10;;;13.75;;
3447;SDS011;1738;49.500;17.736;2022-12-07T02:25:44;21.77;;;13.50;;
3447;SDS011;1738;49.500;17.736;2022-12-07T02:30:49;21.87;;;13.97;;
3447;SDS011;1738;49.500;17.736;2022-12-07T02:33:16;21.30;;;13.47;;
3447;SDS011;1738;49.500;17.736;2022-12-07T02:35:42;20.23;;;13.13;;
3447;SDS011;1738;49.500;17.736;2022-12-07T02:38:14;24.27;;;13.90;;
3447;SDS011;1738;49.500;17.736;2022-12-07T02:40:34;20.77;;;12.80;;
3447;SDS011;1738;49.500;17.736;2022-12-07T02:43:04;16.97;;;12.50;;
3447;SDS011;1738;49.500;17.736;2022-12-07T02:45:27;18.87;;;12.97;;
3447;SDS011;1738;49.500;17.736;2022-12-07T02:47:54;17.67;;;11.33;;
3447;SDS011;1738;49.500;17.736;2022-12-07T02:50:20;19.57;;;12.67;;
3447;SDS011;1738;49.500;17.736;2022-12-07T02:52:45;16.90;;;11.30;;
3447;SDS011;1738;49.500;17.736;2022-12-07T02:55:11;17.73;;;12.13;;
3447;SDS011;1738;49.500;17.736;2022-12-07T02:57:41;16.40;;;12.23;;
3447;SDS011;1738;49.500;17.736;2022-12-07T03:00:06;17.08;;;11.70;;
3447;SDS011;1738;49.500;17.736;2022-12-07T03:02:33;16.57;;;11.00;;
3447;SDS011;1738;49.500;17.736;2022-12-07T03:06:06;21.10;;;12.10;;
3447;SDS011;1738;49.500;17.736;2022-12-07T03:07:47;15.77;;;11.30;;
3447;SDS011;1738;49.500;17.736;2022-12-07T03:10:10;15.10;;;10.37;;
3447;SDS011;1738;49.500;17.736;2022-12-07T03:12:37;16.60;;;10.83;;
3447;SDS011;1738;49.500;17.736;2022-12-07T03:15:04;17.67;;;11.30;;
3447;SDS011;1738;49.500;17.736;2022-12-07T03:17:27;14.95;;;10.82;;
3447;SDS011;1738;49.500;17.736;2022-12-07T03:19:53;16.17;;;10.77;;
3447;SDS011;1738;49.500;17.736;2022-12-07T03:22:18;14.33;;;10.63;;
3447;SDS011;1738;49.500;17.736;2022-12-07T03:24:47;14.87;;;9.43;;
3447;SDS011;1738;49.500;17.736;2022-12-07T03:27:19;12.80;;;9.17;;
3447;SDS011;1738;49.500;17.736;2022-12-07T03:29:45;15.47;;;9.70;;
3447;SDS011;1738;49.500;17.736;2022-12-07T03:32:14;16.80;;;9.00;;
3447;SDS011;1738;49.500;17.736;2022-12-07T03:34:40;10.77;;;8.70;;
3447;SDS011;1738;49.500;17.736;2022-12-07T03:37:05;15.07;;;9.73;;
3447;SDS011;1738;49.500;17.736;2022-12-07T03:39:33;13.40;;;8.97;;
3447;SDS011;1738;49.500;17.736;2022-12-07T03:41:57;12.90;;;8.20;;
3447;SDS011;1738;49.500;17.736;2022-12-07T03:44:22;12.93;;;8.83;;
3447;SDS011;1738;49.500;17.736;2022-12-07T03:46:52;21.80;;;9.40;;
3447;SDS011;1738;49.500;17.736;2022-12-07T03:49:21;16.30;;;10.20;;
3447;SDS011;1738;49.500;17.736;2022-12-07T03:51:51;15.23;;;9.97;;
3447;SDS011;1738;49.500;17.736;2022-12-07T03:54:18;13.93;;;9.10;;
3447;SDS011;1738;49.500;17.736;2022-12-07T03:56:42;12.43;;;9.47;;
3447;SDS011;1738;49.500;17.736;2022-12-07T03:59:08;15.40;;;10.40;;
3447;SDS011;1738;49.500;17.736;2022-12-07T04:01:34;15.05;;;9.73;;
3447;SDS011;1738;49.500;17.736;2022-12-07T04:04:00;13.93;;;9.38;;
3447;SDS011;1738;49.500;17.736;2022-12-07T04:06:25;14.50;;;9.77;;
3447;SDS011;1738;49.500;17.736;2022-12-07T04:08:51;13.30;;;9.10;;
3447;SDS011;1738;49.500;17.736;2022-12-07T04:11:18;12.57;;;9.77;;
3447;SDS011;1738;49.500;17.736;2022-12-07T04:13:44;13.23;;;9.90;;
3447;SDS011;1738;49.500;17.736;2022-12-07T04:16:15;14.50;;;10.07;;
3447;SDS011;1738;49.500;17.736;2022-12-07T04:18:41;16.40;;;10.35;;
3447;SDS011;1738;49.500;17.736;2022-12-07T04:21:07;16.33;;;10.70;;
3447;SDS011;1738;49.500;17.736;2022-12-07T04:23:33;15.93;;;10.83;;
3447;SDS011;1738;49.500;17.736;2022-12-07T04:25:59;18.35;;;11.48;;
3447;SDS011;1738;49.500;17.736;2022-12-07T04:28:25;17.65;;;10.38;;
3447;SDS011;1738;49.500;17.736;2022-12-07T04:30:51;19.03;;;13.27;;
3447;SDS011;1738;49.500;17.736;2022-12-07T04:33:17;19.37;;;11.80;;
3447;SDS011;1738;49.500;17.736;2022-12-07T04:35:43;14.67;;;11.00;;
3447;SDS011;1738;49.500;17.736;2022-12-07T04:38:08;17.30;;;11.73;;
3447;SDS011;1738;49.500;17.736;2022-12-07T04:40:34;17.60;;;10.57;;
3447;SDS011;1738;49.500;17.736;2022-12-07T04:43:00;19.02;;;12.90;;
3447;SDS011;1738;49.500;17.736;2022-12-07T04:45:26;16.70;;;11.37;;
3447;SDS011;1738;49.500;17.736;2022-12-07T04:47:52;16.47;;;12.10;;
3447;SDS011;1738;49.500;17.736;2022-12-07T04:50:18;16.20;;;11.10;;
3447;SDS011;1738;49.500;17.736;2022-12-07T04:52:43;13.70;;;9.40;;
3447;SDS011;1738;49.500;17.736;2022-12-07T04:55:09;15.77;;;9.60;;
3447;SDS011;1738;49.500;17.736;2022-12-07T04:57:35;12.47;;;9.50;;
3447;SDS011;1738;49.500;17.736;2022-12-07T05:00:01;10.87;;;9.00;;
3447;SDS011;1738;49.500;17.736;2022-12-07T05:02:27;13.50;;;9.13;;
3447;SDS011;1738;49.500;17.736;2022-12-07T05:04:53;14.00;;;9.73;;
3447;SDS011;1738;49.500;17.736;2022-12-07T05:07:19;15.40;;;10.37;;
3447;SDS011;1738;49.500;17.736;2022-12-07T05:09:44;13.47;;;9.03;;
3447;SDS011;1738;49.500;17.736;2022-12-07T05:12:10;12.43;;;8.97;;
3447;SDS011;1738;49.500;17.736;2022-12-07T05:14:36;11.73;;;8.27;;
3447;SDS011;1738;49.500;17.736;2022-12-07T05:17:02;12.33;;;8.67;;
3447;SDS011;1738;49.500;17.736;2022-12-07T05:19:28;12.33;;;8.63;;
3447;SDS011;1738;49.500;17.736;2022-12-07T05:21:54;13.02;;;8.82;;
3447;SDS011;1738;49.500;17.736;2022-12-07T05:24:20;13.00;;;8.60;;
3447;SDS011;1738;49.500;17.736;2022-12-07T05:26:45;13.40;;;7.50;;
3447;SDS011;1738;49.500;17.736;2022-12-07T05:29:12;10.87;;;7.70;;
3447;SDS011;1738;49.500;17.736;2022-12-07T05:31:37;11.90;;;8.00;;
3447;SDS011;1738;49.500;17.736;2022-12-07T05:34:03;11.47;;;7.63;;
3447;SDS011;1738;49.500;17.736;2022-12-07T05:36:29;11.53;;;6.13;;
3447;SDS011;1738;49.500;17.736;2022-12-07T05:38:55;10.90;;;6.93;;
3447;SDS011;1738;49.500;17.736;2022-12-07T05:41:20;10.70;;;7.00;;
3447;SDS011;1738;49.500;17.736;2022-12-07T05:43:52;11.37;;;7.30;;
3447;SDS011;1738;49.500;17.736;2022-12-07T05:46:18;8.45;;;6.12;;
3447;SDS011;1738;49.500;17.736;2022-12-07T05:48:44;10.50;;;6.03;;
3447;SDS011;1738;49.500;17.736;2022-12-07T05:51:10;8.47;;;6.30;;
3447;SDS011;1738;49.500;17.736;2022-12-07T05:53:35;10.20;;;6.17;;
3447;SDS011;1738;49.500;17.736;2022-12-07T05:56:01;10.37;;;6.63;;
3447;SDS011;1738;49.500;17.736;2022-12-07T05:58:27;8.97;;;6.03;;
3447;SDS011;1738;49.500;17.736;2022-12-07T06:00:59;14.47;;;7.80;;
3447;SDS011;1738;49.500;17.736;2022-12-07T06:03:25;10.60;;;7.43;;
3447;SDS011;1738;49.500;17.736;2022-12-07T06:05:51;7.00;;;5.90;;
3447;SDS011;1738;49.500;17.736;2022-12-07T06:08:16;8.13;;;5.90;;
3447;SDS011;1738;49.500;17.736;2022-12-07T06:10:42;9.90;;;6.03;;
3447;SDS011;1738;49.500;17.736;2022-12-07T06:13:08;7.77;;;5.87;;
3447;SDS011;1738;49.500;17.736;2022-12-07T06:15:35;8.27;;;6.00;;
3447;SDS011;1738;49.500;17.736;2022-12-07T06:18:00;11.10;;;6.57;;
3447;SDS011;1738;49.500;17.736;2022-12-07T06:20:26;9.43;;;6.33;;
3447;SDS011;1738;49.500;17.736;2022-12-07T06:22:52;6.87;;;4.90;;
3447;SDS011;1738;49.500;17.736;2022-12-07T06:25:18;7.10;;;5.40;;
3447;SDS011;1738;49.500;17.736;2022-12-07T06:27:44;6.63;;;5.00;;
3447;SDS011;1738;49.500;17.736;2022-12-07T06:30:10;5.70;;;4.70;;
3447;SDS011;1738;49.500;17.736;2022-12-07T06:32:36;7.50;;;5.50;;
3447;SDS011;1738;49.500;17.736;2022-12-07T06:35:01;8.83;;;5.30;;
3447;SDS011;1738;49.500;17.736;2022-12-07T06:37:27;6.87;;;4.67;;
3447;SDS011;1738;49.500;17.736;2022-12-07T06:39:53;7.62;;;5.55;;
3447;SDS011;1738;49.500;17.736;2022-12-07T06:42:19;6.23;;;4.60;;
3447;SDS011;1738;49.500;17.736;2022-12-07T06:44:45;6.80;;;4.40;;
3447;SDS011;1738;49.500;17.736;2022-12-07T06:47:11;5.97;;;3.87;;
3447;SDS011;1738;49.500;17.736;2022-12-07T06:49:36;7.80;;;4.00;;
3447;SDS011;1738;49.500;17.736;2022-12-07T06:52:02;10.37;;;4.50;;
3447;SDS011;1738;49.500;17.736;2022-12-07T06:54:28;5.13;;;3.23;;
3447;SDS011;1738;49.500;17.736;2022-12-07T06:56:54;5.20;;;3.87;;
3447;SDS011;1738;49.500;17.736;2022-12-07T06:59:20;5.47;;;3.93;;
3447;SDS011;1738;49.500;17.736;2022-12-07T07:01:46;5.33;;;3.47;;
3447;SDS011;1738;49.500;17.736;2022-12-07T07:04:12;5.30;;;3.80;;
3447;SDS011;1738;49.500;17.736;2022-12-07T07:06:37;5.90;;;3.57;;
3447;SDS011;1738;49.500;17.736;2022-12-07T07:09:03;4.90;;;3.40;;
3447;SDS011;1738;49.500;17.736;2022-12-07T07:11:29;5.93;;;3.93;;
3447;SDS011;1738;49.500;17.736;2022-12-07T07:13:55;7.30;;;3.93;;
3447;SDS011;1738;49.500;17.736;2022-12-07T07:16:21;5.77;;;3.70;;
3447;SDS011;1738;49.500;17.736;2022-12-07T07:18:47;4.67;;;3.10;;
3447;SDS011;1738;49.500;17.736;2022-12-07T07:21:13;6.40;;;4.03;;
3447;SDS011;1738;49.500;17.736;2022-12-07T07:23:39;8.30;;;3.50;;
3447;SDS011;1738;49.500;17.736;2022-12-07T07:26:04;4.73;;;3.53;;
3447;SDS011;1738;49.500;17.736;2022-12-07T07:28:30;6.50;;;3.30;;
3447;SDS011;1738;49.500;17.736;2022-12-07T07:30:56;4.77;;;3.23;;
3447;SDS011;1738;49.500;17.736;2022-12-07T07:33:22;5.40;;;3.33;;
3447;SDS011;1738;49.500;17.736;2022-12-07T07:35:48;5.60;;;3.42;;
3447;SDS011;1738;49.500;17.736;2022-12-07T07:38:14;6.13;;;2.93;;
3447;SDS011;1738;49.500;17.736;2022-12-07T07:40:40;4.63;;;3.67;;
3447;SDS011;1738;49.500;17.736;2022-12-07T07:43:05;4.40;;;3.20;;
3447;SDS011;1738;49.500;17.736;2022-12-07T07:45:31;4.20;;;3.37;;
3447;SDS011;1738;49.500;17.736;2022-12-07T07:47:57;6.03;;;3.30;;
3447;SDS011;1738;49.500;17.736;2022-12-07T07:50:23;6.87;;;4.93;;
3447;SDS011;1738;49.500;17.736;2022-12-07T07:52:49;6.50;;;4.00;;
3447;SDS011;1738;49.500;17.736;2022-12-07T07:55:15;6.50;;;4.73;;
3447;SDS011;1738;49.500;17.736;2022-12-07T07:57:40;7.23;;;4.80;;
3447;SDS011;1738;49.500;17.736;2022-12-07T08:00:07;7.17;;;5.00;;
3447;SDS011;1738;49.500;17.736;2022-12-07T08:02:33;7.13;;;5.90;;
3447;SDS011;1738;49.500;17.736;2022-12-07T08:04:59;8.80;;;6.30;;
3447;SDS011;1738;49.500;17.736;2022-12-07T08:07:24;12.60;;;7.60;;
3447;SDS011;1738;49.500;17.736;2022-12-07T08:09:50;7.53;;;6.70;;
3447;SDS011;1738;49.500;17.736;2022-12-07T08:12:16;8.05;;;6.03;;
3447;SDS011;1738;49.500;17.736;2022-12-07T08:14:42;8.03;;;5.80;;
3447;SDS011;1738;49.500;17.736;2022-12-07T08:17:08;8.90;;;6.33;;
3447;SDS011;1738;49.500;17.736;2022-12-07T08:19:34;11.40;;;6.60;;
3447;SDS011;1738;49.500;17.736;2022-12-07T08:21:59;7.37;;;5.23;;
3447;SDS011;1738;49.500;17.736;2022-12-07T08:24:25;8.83;;;5.60;;
3447;SDS011;1738;49.500;17.736;2022-12-07T08:26:51;7.87;;;5.90;;
3447;SDS011;1738;49.500;17.736;2022-12-07T08:29:17;6.50;;;5.30;;
3447;SDS011;1738;49.500;17.736;2022-12-07T08:31:43;5.35;;;4.12;;
3447;SDS011;1738;49.500;17.736;2022-12-07T08:34:10;7.33;;;5.13;;
3447;SDS011;1738;49.500;17.736;2022-12-07T08:36:36;7.13;;;4.30;;
3447;SDS011;1738;49.500;17.736;2022-12-07T08:39:01;6.50;;;4.10;;
3447;SDS011;1738;49.500;17.736;2022-12-07T08:41:27;6.10;;;3.97;;
3447;SDS011;1738;49.500;17.736;2022-12-07T08:43:53;4.50;;;3.40;;
3447;SDS011;1738;49.500;17.736;2022-12-07T08:46:20;4.93;;;3.93;;
3447;SDS011;1738;49.500;17.736;2022-12-07T08:48:46;6.75;;;4.00;;
3447;SDS011;1738;49.500;17.736;2022-12-07T08:51:10;5.77;;;3.80;;
3447;SDS011;1738;49.500;17.736;2022-12-07T08:53:36;5.00;;;3.60;;
3447;SDS011;1738;49.500;17.736;2022-12-07T08:56:02;5.25;;;3.42;;
3447;SDS011;1738;49.500;17.736;2022-12-07T08:58:28;7.93;;;4.90;;
3447;SDS011;1738;49.500;17.736;2022-12-07T09:00:54;7.73;;;3.50;;
3447;SDS011;1738;49.500;17.736;2022-12-07T09:03:20;6.00;;;3.53;;
3447;SDS011;1738;49.500;17.736;2022-12-07T09:05:46;4.67;;;3.57;;
3447;SDS011;1738;49.500;17.736;2022-12-07T09:08:12;5.90;;;4.37;;
3447;SDS011;1738;49.500;17.736;2022-12-07T09:10:38;4.90;;;3.77;;
3447;SDS011;1738;49.500;17.736;2022-12-07T09:13:04;7.73;;;4.63;;
3447;SDS011;1738;49.500;17.736;2022-12-07T09:15:30;6.10;;;3.80;;
3447;SDS011;1738;49.500;17.736;2022-12-07T09:17:56;5.50;;;4.00;;
3447;SDS011;1738;49.500;17.736;2022-12-07T09:20:22;6.90;;;5.03;;
3447;SDS011;1738;49.500;17.736;2022-12-07T09:22:47;6.30;;;4.57;;
3447;SDS011;1738;49.500;17.736;2022-12-07T09:25:13;7.90;;;4.72;;
3447;SDS011;1738;49.500;17.736;2022-12-07T09:27:39;5.80;;;4.77;;
3447;SDS011;1738;49.500;17.736;2022-12-07T09:30:05;6.27;;;4.87;;
3447;SDS011;1738;49.500;17.736;2022-12-07T09:32:31;8.10;;;5.30;;
3447;SDS011;1738;49.500;17.736;2022-12-07T09:34:57;7.40;;;5.60;;
3447;SDS011;1738;49.500;17.736;2022-12-07T09:37:23;7.07;;;5.07;;
3447;SDS011;1738;49.500;17.736;2022-12-07T09:39:49;7.77;;;5.27;;
3447;SDS011;1738;49.500;17.736;2022-12-07T09:42:47;10.00;;;5.85;;
3447;SDS011;1738;49.500;17.736;2022-12-07T09:44:55;7.40;;;5.13;;
3447;SDS011;1738;49.500;17.736;2022-12-07T09:47:21;9.43;;;6.00;;
3447;SDS011;1738;49.500;17.736;2022-12-07T09:49:47;8.20;;;6.10;;
3447;SDS011;1738;49.500;17.736;2022-12-07T09:52:19;5.97;;;5.30;;
3447;SDS011;1738;49.500;17.736;2022-12-07T09:54:46;7.30;;;5.70;;
3447;SDS011;1738;49.500;17.736;2022-12-07T09:57:11;8.50;;;6.13;;
3447;SDS011;1738;49.500;17.736;2022-12-07T09:59:36;8.90;;;6.27;;
3447;SDS011;1738;49.500;17.736;2022-12-07T10:02:19;10.70;;;6.70;;
3447;SDS011;1738;49.500;17.736;2022-12-07T10:04:27;8.07;;;7.20;;
3447;SDS011;1738;49.500;17.736;2022-12-07T10:06:53;10.25;;;6.55;;
3447;SDS011;1738;49.500;17.736;2022-12-07T10:09:20;7.97;;;5.70;;
3447;SDS011;1738;49.500;17.736;2022-12-07T10:14:17;8.30;;;6.07;;
3447;SDS011;1738;49.500;17.736;2022-12-07T10:16:42;7.20;;;5.60;;
3447;SDS011;1738;49.500;17.736;2022-12-07T10:19:20;8.80;;;6.23;;
3447;SDS011;1738;49.500;17.736;2022-12-07T10:22:20;10.73;;;7.90;;
3447;SDS011;1738;49.500;17.736;2022-12-07T10:24:29;10.20;;;7.63;;
3447;SDS011;1738;49.500;17.736;2022-12-07T10:26:55;9.77;;;7.23;;
3447;SDS011;1738;49.500;17.736;2022-12-07T10:29:23;8.80;;;6.80;;
3447;SDS011;1738;49.500;17.736;2022-12-07T10:31:54;11.00;;;7.50;;
3447;SDS011;1738;49.500;17.736;2022-12-07T10:34:22;10.00;;;8.63;;
3447;SDS011;1738;49.500;17.736;2022-12-07T10:36:47;9.90;;;7.60;;
3447;SDS011;1738;49.500;17.736;2022-12-07T10:39:15;11.03;;;7.70;;
3447;SDS011;1738;49.500;17.736;2022-12-07T10:44:19;9.27;;;6.50;;
3447;SDS011;1738;49.500;17.736;2022-12-07T10:46:42;9.98;;;6.15;;
3447;SDS011;1738;49.500;17.736;2022-12-07T10:49:08;11.23;;;8.03;;
3447;SDS011;1738;49.500;17.736;2022-12-07T10:51:36;9.98;;;7.03;;
3447;SDS011;1738;49.500;17.736;2022-12-07T10:54:03;10.60;;;7.17;;
3447;SDS011;1738;49.500;17.736;2022-12-07T10:56:30;9.50;;;7.33;;
3447;SDS011;1738;49.500;17.736;2022-12-07T10:59:02;8.13;;;6.90;;
3447;SDS011;1738;49.500;17.736;2022-12-07T11:01:25;10.23;;;7.53;;
3447;SDS011;1738;49.500;17.736;2022-12-07T11:03:55;10.23;;;7.40;;
3447;SDS011;1738;49.500;17.736;2022-12-07T11:06:24;10.70;;;7.23;;
3447;SDS011;1738;49.500;17.736;2022-12-07T11:08:52;7.50;;;5.90;;
3447;SDS011;1738;49.500;17.736;2022-12-07T11:11:16;8.67;;;7.73;;
3447;SDS011;1738;49.500;17.736;2022-12-07T11:13:48;10.97;;;8.30;;
3447;SDS011;1738;49.500;17.736;2022-12-07T11:16:16;10.20;;;7.20;;
3447;SDS011;1738;49.500;17.736;2022-12-07T11:18:52;10.40;;;7.50;;
3447;SDS011;1738;49.500;17.736;2022-12-07T11:21:27;9.90;;;7.10;;
3447;SDS011;1738;49.500;17.736;2022-12-07T11:23:55;11.63;;;8.53;;
3447;SDS011;1738;49.500;17.736;2022-12-07T11:26:21;12.23;;;8.32;;
3447;SDS011;1738;49.500;17.736;2022-12-07T11:28:52;13.23;;;9.17;;
3447;SDS011;1738;49.500;17.736;2022-12-07T11:31:18;11.20;;;7.55;;
3447;SDS011;1738;49.500;17.736;2022-12-07T11:33:45;12.30;;;8.90;;
3447;SDS011;1738;49.500;17.736;2022-12-07T11:38:44;14.77;;;8.67;;
3447;SDS011;1738;49.500;17.736;2022-12-07T11:41:08;11.10;;;8.80;;
3447;SDS011;1738;49.500;17.736;2022-12-07T11:43:46;10.47;;;7.70;;
3447;SDS011;1738;49.500;17.736;2022-12-07T11:46:11;15.53;;;9.17;;
3447;SDS011;1738;49.500;17.736;2022-12-07T11:48:40;9.47;;;8.10;;
3447;SDS011;1738;49.500;17.736;2022-12-07T11:51:04;10.07;;;6.87;;
3447;SDS011;1738;49.500;17.736;2022-12-07T11:53:33;9.23;;;6.97;;
3447;SDS011;1738;49.500;17.736;2022-12-07T11:56:00;9.13;;;6.63;;
3447;SDS011;1738;49.500;17.736;2022-12-07T11:58:34;7.90;;;6.47;;
3447;SDS011;1738;49.500;17.736;2022-12-07T12:01:08;7.70;;;6.20;;
3447;SDS011;1738;49.500;17.736;2022-12-07T12:03:26;8.75;;;5.85;;
3447;SDS011;1738;49.500;17.736;2022-12-07T12:05:49;9.53;;;6.03;;
3447;SDS011;1738;49.500;17.736;2022-12-07T12:08:18;6.60;;;4.70;;
3447;SDS011;1738;49.500;17.736;2022-12-07T12:10:47;7.17;;;4.43;;
3447;SDS011;1738;49.500;17.736;2022-12-07T12:13:14;7.70;;;4.50;;
3447;SDS011;1738;49.500;17.736;2022-12-07T12:15:42;7.17;;;5.23;;
3447;SDS011;1738;49.500;17.736;2022-12-07T12:23:15;7.30;;;4.73;;
3447;SDS011;1738;49.500;17.736;2022-12-07T12:25:44;7.57;;;5.40;;
3447;SDS011;1738;49.500;17.736;2022-12-07T12:28:18;7.67;;;4.93;;
3447;SDS011;1738;49.500;17.736;2022-12-07T12:30:35;7.60;;;4.70;;
3447;SDS011;1738;49.500;17.736;2022-12-07T12:33:02;7.07;;;4.20;;
3447;SDS011;1738;49.500;17.736;2022-12-07T12:35:30;5.80;;;4.23;;
3447;SDS011;1738;49.500;17.736;2022-12-07T12:37:54;6.45;;;4.43;;
3447;SDS011;1738;49.500;17.736;2022-12-07T12:43:01;7.00;;;4.57;;
3447;SDS011;1738;49.500;17.736;2022-12-07T12:45:31;9.00;;;4.80;;
3447;SDS011;1738;49.500;17.736;2022-12-07T12:47:59;6.77;;;4.00;;
3447;SDS011;1738;49.500;17.736;2022-12-07T12:50:28;7.23;;;4.37;;
3447;SDS011;1738;49.500;17.736;2022-12-07T12:52:55;5.00;;;4.00;;
3447;SDS011;1738;49.500;17.736;2022-12-07T12:55:20;6.10;;;3.87;;
3447;SDS011;1738;49.500;17.736;2022-12-07T12:57:45;5.80;;;4.43;;
3447;SDS011;1738;49.500;17.736;2022-12-07T13:00:17;5.27;;;3.80;;
3447;SDS011;1738;49.500;17.736;2022-12-07T13:02:47;6.37;;;4.40;;
3447;SDS011;1738;49.500;17.736;2022-12-07T13:05:17;8.47;;;4.93;;
3447;SDS011;1738;49.500;17.736;2022-12-07T13:07:53;6.93;;;4.30;;
3447;SDS011;1738;49.500;17.736;2022-12-07T13:10:21;8.20;;;5.37;;
3447;SDS011;1738;49.500;17.736;2022-12-07T13:17:55;7.90;;;5.33;;
3447;SDS011;1738;49.500;17.736;2022-12-07T13:22:51;7.50;;;5.13;;
3447;SDS011;1738;49.500;17.736;2022-12-07T13:25:22;11.10;;;5.93;;
3447;SDS011;1738;49.500;17.736;2022-12-07T13:27:48;11.57;;;6.20;;
3447;SDS011;1738;49.500;17.736;2022-12-07T13:30:13;10.43;;;5.15;;
3447;SDS011;1738;49.500;17.736;2022-12-07T13:32:37;6.90;;;4.73;;
3447;SDS011;1738;49.500;17.736;2022-12-07T13:35:26;7.27;;;5.27;;
3447;SDS011;1738;49.500;17.736;2022-12-07T13:37:30;9.03;;;5.70;;
3447;SDS011;1738;49.500;17.736;2022-12-07T13:39:57;8.67;;;6.20;;
3447;SDS011;1738;49.500;17.736;2022-12-07T13:42:27;12.80;;;7.33;;
3447;SDS011;1738;49.500;17.736;2022-12-07T13:44:52;10.23;;;7.53;;
3447;SDS011;1738;49.500;17.736;2022-12-07T13:47:23;10.43;;;6.80;;
3447;SDS011;1738;49.500;17.736;2022-12-07T13:49:47;10.53;;;6.20;;
3447;SDS011;1738;49.500;17.736;2022-12-07T13:52:14;6.93;;;5.22;;
3447;SDS011;1738;49.500;17.736;2022-12-07T13:54:45;10.23;;;6.30;;
3447;SDS011;1738;49.500;17.736;2022-12-07T13:57:09;8.20;;;6.28;;
3447;SDS011;1738;49.500;17.736;2022-12-07T13:59:35;10.13;;;5.93;;
3447;SDS011;1738;49.500;17.736;2022-12-07T14:02:01;10.88;;;6.35;;
3447;SDS011;1738;49.500;17.736;2022-12-07T14:04:30;8.50;;;5.70;;
3447;SDS011;1738;49.500;17.736;2022-12-07T14:06:55;9.57;;;4.87;;
3447;SDS011;1738;49.500;17.736;2022-12-07T14:09:21;7.90;;;3.90;;
3447;SDS011;1738;49.500;17.736;2022-12-07T14:11:47;6.70;;;4.30;;
3447;SDS011;1738;49.500;17.736;2022-12-07T14:14:17;6.87;;;4.10;;
3447;SDS011;1738;49.500;17.736;2022-12-07T14:16:40;8.00;;;4.50;;
3447;SDS011;1738;49.500;17.736;2022-12-07T14:19:21;7.93;;;5.60;;
3447;SDS011;1738;49.500;17.736;2022-12-07T14:21:33;7.37;;;5.50;;
3447;SDS011;1738;49.500;17.736;2022-12-07T14:24:07;7.87;;;5.70;;
3447;SDS011;1738;49.500;17.736;2022-12-07T14:26:28;7.03;;;4.93;;
3447;SDS011;1738;49.500;17.736;2022-12-07T14:29:18;9.03;;;6.00;;
3447;SDS011;1738;49.500;17.736;2022-12-07T14:31:21;10.33;;;6.17;;
3447;SDS011;1738;49.500;17.736;2022-12-07T14:33:46;8.77;;;6.20;;
3447;SDS011;1738;49.500;17.736;2022-12-07T14:36:12;7.83;;;5.40;;
3447;SDS011;1738;49.500;17.736;2022-12-07T14:38:38;12.70;;;6.37;;
3447;SDS011;1738;49.500;17.736;2022-12-07T14:41:05;10.77;;;7.07;;
3447;SDS011;1738;49.500;17.736;2022-12-07T14:43:36;9.20;;;6.43;;
3447;SDS011;1738;49.500;17.736;2022-12-07T14:46:02;9.30;;;6.43;;
3447;SDS011;1738;49.500;17.736;2022-12-07T14:48:28;9.00;;;5.93;;
3447;SDS011;1738;49.500;17.736;2022-12-07T14:50:54;11.43;;;6.77;;
3447;SDS011;1738;49.500;17.736;2022-12-07T14:53:21;10.97;;;8.17;;
3447;SDS011;1738;49.500;17.736;2022-12-07T14:55:46;12.90;;;8.90;;
3447;SDS011;1738;49.500;17.736;2022-12-07T14:58:13;12.07;;;7.72;;
3447;SDS011;1738;49.500;17.736;2022-12-07T15:00:37;8.43;;;6.60;;
3447;SDS011;1738;49.500;17.736;2022-12-07T15:03:04;14.25;;;7.00;;
3447;SDS011;1738;49.500;17.736;2022-12-07T15:05:30;14.00;;;7.80;;
3447;SDS011;1738;49.500;17.736;2022-12-07T15:07:56;8.83;;;7.20;;
3447;SDS011;1738;49.500;17.736;2022-12-07T15:10:23;9.80;;;6.67;;
3447;SDS011;1738;49.500;17.736;2022-12-07T15:12:48;9.73;;;5.63;;